Time;durP1;ratioP1;P1;durP2;ratioP2;P2;SDS_P1;SDS_P2;PMS_P1;PMS_P2;Temp;Humidity;BMP_temperature;BMP_pressure;BME280_temperature;BME280_humidity;BME280_pressure;Samples;Min_cycle;Max_cycle;Signal;HPM_P1;HPM_P2
2022/05/18 00:02:00;;;;;;;9.15;1.70;;;21.90;80.20;;;;;;5015036;28;20018;-73
2022/05/18 00:04:27;;;;;;;6.20;2.20;;;21.70;81.00;;;;;;5014501;28;20017;-73
2022/05/18 00:06:52;;;;;;;7.07;2.10;;;21.60;81.50;;;;;;5014238;28;20014;-73
2022/05/18 00:09:18;;;;;;;8.38;1.98;;;21.60;81.50;;;;;;5014569;28;20025;-73
2022/05/18 00:11:44;;;;;;;5.97;1.73;;;21.60;82.20;;;;;;5014724;28;20044;-74
2022/05/18 00:14:10;;;;;;;4.85;2.13;;;21.60;81.90;;;;;;5015042;28;20018;-73
2022/05/18 00:16:35;;;;;;;3.70;1.60;;;21.50;82.80;;;;;;5014927;28;20022;-73
2022/05/18 00:19:01;;;;;;;5.50;1.90;;;21.50;83.10;;;;;;5013674;28;20034;-73
2022/05/18 00:21:27;;;;;;;4.68;1.63;;;21.50;83.00;;;;;;5013961;28;20104;-73
2022/05/18 00:23:53;;;;;;;5.57;1.85;;;21.60;82.60;;;;;;5013085;28;20117;-73
2022/05/18 00:26:19;;;;;;;5.00;1.58;;;21.50;83.20;;;;;;5014244;28;20026;-73
2022/05/18 00:28:44;;;;;;;4.68;1.92;;;21.40;85.00;;;;;;5014116;28;20038;-73
2022/05/18 00:31:13;;;;;;;5.10;1.77;;;21.30;85.10;;;;;;5014104;28;20481;-73
2022/05/18 00:33:38;;;;;;;3.33;1.65;;;21.40;85.50;;;;;;5006662;28;20038;-73
2022/05/18 00:36:04;;;;;;;5.63;1.88;;;21.30;85.90;;;;;;4996071;28;20022;-73
2022/05/18 00:38:30;;;;;;;5.40;1.67;;;21.30;86.60;;;;;;5014324;28;20444;-73
2022/05/18 00:40:56;;;;;;;4.07;2.00;;;21.30;86.90;;;;;;5013405;28;20022;-73
2022/05/18 00:43:31;;;;;;;4.38;1.63;;;21.30;86.20;;;;;;5013744;28;20487;-73
2022/05/18 00:46:03;;;;;;;8.38;2.03;;;21.30;86.90;;;;;;5014685;28;20018;-74
2022/05/18 00:48:30;;;;;;;9.35;2.20;;;21.30;87.60;;;;;;5013918;28;20037;-73
2022/05/18 00:50:58;;;;;;;6.40;1.90;;;21.30;87.60;;;;;;5012405;28;20022;-73
2022/05/18 00:53:34;;;;;;;4.80;1.60;;;21.30;87.60;;;;;;5014133;28;20120;-73
2022/05/18 00:56:04;;;;;;;3.20;1.40;;;21.30;87.70;;;;;;5012417;28;20052;-73
2022/05/18 00:58:33;;;;;;;6.05;2.00;;;21.30;87.90;;;;;;5013797;28;20026;-73
2022/05/18 01:00:59;;;;;;;3.78;1.73;;;21.30;86.60;;;;;;5014171;28;20120;-73
2022/05/18 01:03:47;;;;;;;4.68;1.60;;;21.30;87.10;;;;;;5013709;28;20018;-73
2022/05/18 01:06:16;;;;;;;6.18;1.95;;;21.20;86.40;;;;;;5013383;28;20030;-73
2022/05/18 01:09:01;;;;;;;8.30;1.98;;;21.20;86.30;;;;;;5013762;28;20037;-73
2022/05/18 01:11:27;;;;;;;4.43;1.73;;;21.10;85.90;;;;;;5013557;28;20060;-73
2022/05/18 01:13:53;;;;;;;7.78;2.08;;;21.10;87.10;;;;;;5013604;28;20437;-73
2022/05/18 01:16:20;;;;;;;7.78;2.00;;;21.10;87.10;;;;;;5013300;28;20038;-73
2022/05/18 01:18:47;;;;;;;6.03;2.03;;;21.10;87.40;;;;;;5013509;28;20069;-73
2022/05/18 01:21:13;;;;;;;7.05;1.75;;;21.10;87.90;;;;;;5013115;28;20034;-73
2022/05/18 01:24:12;;;;;;;6.65;1.90;;;21.00;87.30;;;;;;5013255;28;20026;-73
2022/05/18 01:26:42;;;;;;;4.78;1.80;;;20.90;88.40;;;;;;5011405;28;20084;-73
2022/05/18 01:29:08;;;;;;;7.20;2.10;;;20.80;89.40;;;;;;5012923;28;20084;-73
2022/05/18 01:31:51;;;;;;;4.88;1.90;;;20.70;89.70;;;;;;5013237;28;20073;-73
2022/05/18 01:34:23;;;;;;;5.40;1.85;;;20.70;90.10;;;;;;5013080;28;20022;-73
2022/05/18 01:36:50;;;;;;;5.18;1.77;;;20.60;90.50;;;;;;5013576;28;20022;-73
2022/05/18 01:39:32;;;;;;;5.00;1.75;;;20.70;90.40;;;;;;5012186;28;20026;-73
2022/05/18 01:42:07;;;;;;;5.07;1.80;;;20.60;90.30;;;;;;5013043;28;20025;-73
2022/05/18 01:44:39;;;;;;;4.93;1.35;;;20.70;89.90;;;;;;5012798;28;20018;-74
2022/05/18 01:47:06;;;;;;;6.38;1.52;;;20.60;90.40;;;;;;5012852;28;20030;-73
2022/05/18 01:49:34;;;;;;;3.13;1.48;;;20.70;90.50;;;;;;5012548;28;20889;-73
2022/05/18 01:52:00;;;;;;;7.60;1.75;;;20.70;90.10;;;;;;5011894;28;20065;-73
2022/05/18 01:54:26;;;;;;;3.70;1.20;;;20.70;90.10;;;;;;5001141;28;20524;-73
2022/05/18 01:56:52;;;;;;;7.22;1.65;;;20.70;89.90;;;;;;4991827;28;20053;-73
2022/05/18 01:59:18;;;;;;;8.50;1.45;;;20.80;90.00;;;;;;5010970;28;20482;-73
2022/05/18 02:01:44;;;;;;;4.15;1.40;;;20.80;90.10;;;;;;5011222;28;20061;-73
2022/05/18 02:04:11;;;;;;;7.88;1.80;;;20.80;90.10;;;;;;5010150;28;20072;-73
2022/05/18 02:06:36;;;;;;;3.15;1.42;;;20.90;90.80;;;;;;5012156;28;20018;-74
2022/05/18 02:09:04;;;;;;;5.80;1.48;;;20.90;90.80;;;;;;5012079;28;20030;-74
2022/05/18 02:11:33;;;;;;;4.53;1.15;;;20.80;91.00;;;;;;5011299;28;20375;-73
2022/05/18 02:13:59;;;;;;;5.75;1.40;;;20.80;91.00;;;;;;5012746;28;20097;-73
2022/05/18 02:16:24;;;;;;;3.10;1.17;;;20.80;90.80;;;;;;5012275;28;20117;-74
2022/05/18 02:18:50;;;;;;;3.92;1.92;;;20.80;91.00;;;;;;5012287;28;20036;-73
2022/05/18 02:21:16;;;;;;;4.35;1.70;;;20.70;90.90;;;;;;5012300;28;20026;-73
2022/05/18 02:23:41;;;;;;;4.45;1.45;;;20.70;91.20;;;;;;5012312;28;20022;-73
2022/05/18 02:26:10;;;;;;;4.40;1.42;;;20.60;91.20;;;;;;5012976;28;20367;-73
2022/05/18 02:28:36;;;;;;;4.82;2.13;;;20.60;91.40;;;;;;5012232;28;20473;-73
2022/05/18 02:31:02;;;;;;;5.68;1.50;;;20.60;91.70;;;;;;5011046;28;20022;-73
2022/05/18 02:33:28;;;;;;;4.88;1.60;;;20.50;92.00;;;;;;5011703;28;20449;-73
2022/05/18 02:35:54;;;;;;;2.50;1.33;;;20.30;92.20;;;;;;5005527;28;20105;-73
2022/05/18 02:38:20;;;;;;;6.15;1.75;;;20.20;92.50;;;;;;5009983;28;20010;-73
2022/05/18 02:40:45;;;;;;;6.45;1.60;;;20.20;92.60;;;;;;5012589;28;20373;-73
2022/05/18 02:43:11;;;;;;;5.18;1.40;;;20.10;92.30;;;;;;5012262;28;20033;-73
2022/05/18 02:45:36;;;;;;;5.45;1.67;;;20.10;92.70;;;;;;5011788;28;20149;-73
2022/05/18 02:48:02;;;;;;;5.25;1.60;;;20.10;92.10;;;;;;5011440;28;20022;-73
2022/05/18 02:50:28;;;;;;;12.20;1.80;;;20.20;92.00;;;;;;5011904;28;20374;-73
2022/05/18 02:52:54;;;;;;;6.00;1.25;;;20.20;92.20;;;;;;5012186;28;20472;-73
2022/05/18 02:58:06;;;;;;;9.27;1.75;;;20.10;92.60;;;;;;5012323;28;20036;-73
2022/05/18 03:00:32;;;;;;;4.85;2.20;;;20.00;92.80;;;;;;5011557;28;20061;-73
2022/05/18 03:02:57;;;;;;;5.80;1.52;;;20.00;93.10;;;;;;5012090;28;20481;-73
2022/05/18 03:05:23;;;;;;;5.18;1.40;;;20.00;92.60;;;;;;5010398;28;20029;-73
2022/05/18 03:07:49;;;;;;;4.00;1.60;;;20.00;92.80;;;;;;5011818;28;20445;-73
2022/05/18 03:10:15;;;;;;;5.68;1.85;;;20.00;93.40;;;;;;5012034;28;20061;-73
2022/05/18 03:12:43;;;;;;;5.07;1.60;;;19.80;93.80;;;;;;5011780;28;20072;-73
2022/05/18 03:15:10;;;;;;;8.05;1.75;;;19.80;93.70;;;;;;5011294;28;20025;-73
2022/05/18 03:17:36;;;;;;;2.90;1.52;;;19.80;93.80;;;;;;5010083;28;20489;-73
2022/05/18 03:20:02;;;;;;;7.55;1.58;;;19.80;93.60;;;;;;5012337;28;20037;-73
2022/05/18 03:25:12;;;;;;;8.73;1.90;;;19.80;93.20;;;;;;5011719;28;20088;-74
2022/05/18 03:27:43;;;;;;;5.90;1.52;;;19.70;93.60;;;;;;5011675;28;20022;-73
2022/05/18 03:30:10;;;;;;;5.22;1.50;;;19.70;93.70;;;;;;5011180;28;20552;-73
2022/05/18 03:32:36;;;;;;;6.75;1.65;;;19.70;94.00;;;;;;5012095;28;20030;-73
2022/05/18 03:35:02;;;;;;;2.72;1.70;;;19.70;93.90;;;;;;5011266;28;20045;-73
2022/05/18 03:37:27;;;;;;;4.10;1.35;;;19.60;94.60;;;;;;5012159;28;20026;-73
2022/05/18 03:39:53;;;;;;;7.03;1.42;;;19.60;94.90;;;;;;5012630;28;20056;-73
2022/05/18 03:42:18;;;;;;;5.07;1.30;;;19.60;95.10;;;;;;5011878;28;20489;-73
2022/05/18 03:44:44;;;;;;;2.38;1.48;;;19.60;95.10;;;;;;5011815;28;20030;-73
2022/05/18 03:47:10;;;;;;;7.20;1.40;;;19.50;95.20;;;;;;5010474;28;20461;-73
2022/05/18 03:49:36;;;;;;;6.50;2.28;;;19.50;95.60;;;;;;5010342;28;20065;-73
2022/05/18 03:52:02;;;;;;;8.02;1.65;;;19.50;95.20;;;;;;5011975;28;20048;-74
2022/05/18 03:54:27;;;;;;;7.63;2.28;;;19.50;95.40;;;;;;5011614;28;20060;-73
2022/05/18 03:56:53;;;;;;;4.95;1.75;;;19.50;95.60;;;;;;5011634;28;20053;-74
2022/05/18 03:59:19;;;;;;;4.90;1.67;;;19.40;95.50;;;;;;5011347;28;20034;-73
2022/05/18 04:01:44;;;;;;;7.13;1.80;;;19.40;95.90;;;;;;5011884;28;20053;-73
2022/05/18 04:04:10;;;;;;;6.22;1.80;;;19.40;95.80;;;;;;5015176;28;20025;-73
2022/05/18 04:06:36;;;;;;;6.80;1.55;;;19.40;95.70;;;;;;5015832;28;20425;-73
2022/05/18 04:09:02;;;;;;;9.07;1.58;;;19.40;95.60;;;;;;5015066;28;20026;-73
2022/05/18 04:11:28;;;;;;;4.13;1.60;;;19.40;95.80;;;;;;5015439;28;20400;-73
2022/05/18 04:13:55;;;;;;;4.78;1.95;;;19.30;96.20;;;;;;5014946;28;20034;-79
2022/05/18 04:16:20;;;;;;;5.97;1.75;;;19.30;96.50;;;;;;5015339;28;20036;-75
2022/05/18 04:18:46;;;;;;;4.38;2.13;;;19.20;97.00;;;;;;5014606;28;20034;-75
2022/05/18 04:21:12;;;;;;;7.22;2.15;;;19.30;96.90;;;;;;5015646;28;20026;-75
2022/05/18 04:23:39;;;;;;;3.70;1.85;;;19.20;97.10;;;;;;5014873;28;20097;-75
2022/05/18 04:26:07;;;;;;;4.82;1.70;;;19.10;97.50;;;;;;5014489;28;20022;-73
2022/05/18 04:28:32;;;;;;;5.03;1.63;;;19.10;98.00;;;;;;5014829;28;20508;-73
2022/05/18 04:30:58;;;;;;;7.57;1.88;;;18.90;98.30;;;;;;5011768;28;20030;-73
2022/05/18 04:33:24;;;;;;;10.93;2.13;;;18.80;98.90;;;;;;5014277;28;20161;-73
2022/05/18 04:35:51;;;;;;;6.32;1.75;;;18.80;99.20;;;;;;5014273;28;20029;-73
2022/05/18 04:38:20;;;;;;;7.70;1.85;;;18.80;99.40;;;;;;5014671;28;20184;-73
2022/05/18 04:40:46;;;;;;;10.15;2.10;;;18.90;99.60;;;;;;5014069;28;20021;-73
2022/05/18 04:43:12;;;;;;;6.15;1.92;;;18.90;99.50;;;;;;5014279;28;20029;-73
2022/05/18 04:45:44;;;;;;;5.65;1.77;;;18.80;99.50;;;;;;5007848;28;20028;-73
2022/05/18 04:48:12;;;;;;;4.22;1.83;;;18.70;99.90;;;;;;5010626;28;20436;-75
2022/05/18 04:50:37;;;;;;;5.60;2.25;;;18.90;99.90;;;;;;5014527;28;20105;-74
2022/05/18 04:53:03;;;;;;;4.25;1.80;;;18.90;99.90;;;;;;5013716;28;20545;-73
2022/05/18 04:55:29;;;;;;;6.40;2.30;;;18.80;99.90;;;;;;5012710;28;20057;-73
2022/05/18 04:58:00;;;;;;;7.40;1.95;;;18.70;99.90;;;;;;5013246;28;20072;-74
2022/05/18 05:00:26;;;;;;;5.45;2.15;;;18.70;99.90;;;;;;5013616;28;20082;-74
2022/05/18 05:02:56;;;;;;;2.92;1.58;;;18.70;99.90;;;;;;5014379;28;20131;-74
2022/05/18 05:05:22;;;;;;;8.57;2.35;;;18.80;99.90;;;;;;5014412;28;20021;-81
2022/05/18 05:07:48;;;;;;;7.57;2.20;;;18.90;99.90;;;;;;5014221;28;20026;-74
2022/05/18 05:10:14;;;;;;;7.90;2.00;;;18.80;99.90;;;;;;5014455;28;20026;-77
2022/05/18 05:12:39;;;;;;;8.25;1.95;;;18.80;99.90;;;;;;5013994;28;20092;-74
2022/05/18 05:15:07;;;;;;;8.20;1.98;;;18.70;99.90;;;;;;5017114;28;20030;-73
2022/05/18 06:02:19;;;;;;;12.45;2.15;;;20.00;99.90;;;;;;5010439;28;20108;-73
2022/05/18 06:04:46;;;;;;;10.45;2.50;;;20.00;99.90;;;;;;5012134;28;20018;-75
2022/05/18 06:07:13;;;;;;;10.93;2.00;;;20.30;99.30;;;;;;5013364;28;20022;-77
2022/05/18 06:09:40;;;;;;;9.10;1.70;;;20.50;98.20;;;;;;5021860;28;20021;-76
2022/05/18 06:12:06;;;;;;;7.45;2.03;;;20.70;97.70;;;;;;5021531;28;20116;-78
2022/05/18 06:14:32;;;;;;;8.55;3.00;;;20.80;97.50;;;;;;5013950;28;20022;-76
2022/05/18 06:16:57;;;;;;;4.28;1.83;;;20.80;97.90;;;;;;5012124;28;20029;-75
2022/05/18 06:19:23;;;;;;;9.77;2.35;;;20.90;97.30;;;;;;5012173;28;20022;-75
2022/05/18 06:21:50;;;;;;;5.22;2.10;;;20.90;99.20;;;;;;5030250;28;20067;-75
2022/05/18 06:24:16;;;;;;;6.32;2.50;;;20.90;98.80;;;;;;5013109;28;20020;-76
2022/05/18 06:26:42;;;;;;;4.05;1.92;;;21.00;98.60;;;;;;5012055;28;20421;-75
2022/05/18 06:29:08;;;;;;;10.15;2.10;;;21.10;97.60;;;;;;5026626;28;20021;-75
2022/05/18 06:31:34;;;;;;;4.47;2.22;;;21.30;97.20;;;;;;5014269;28;20084;-75
2022/05/18 06:34:00;;;;;;;12.10;2.38;;;21.30;97.30;;;;;;5030432;28;20079;-76
2022/05/18 06:36:26;;;;;;;7.13;1.60;;;21.40;97.00;;;;;;5030744;28;20060;-76
2022/05/18 06:38:52;;;;;;;13.55;2.22;;;21.40;96.70;;;;;;5027642;28;20053;-76
2022/05/18 06:41:24;;;;;;;7.00;2.08;;;21.40;97.00;;;;;;5012324;28;20358;-76
2022/05/18 06:43:50;;;;;;;;;;;21.40;96.60;;;;;;5021767;28;20033;-76
2022/05/18 06:46:17;;;;;;;6.22;2.05;;;21.30;97.30;;;;;;5014799;28;19996;-76
2022/05/18 06:48:43;;;;;;;14.65;2.30;;;21.20;97.20;;;;;;5018357;28;20061;-76
2022/05/18 06:51:10;;;;;;;6.05;1.95;;;21.30;97.30;;;;;;5013332;28;20018;-76
2022/05/18 06:53:36;;;;;;;6.68;2.05;;;21.40;96.80;;;;;;5020050;28;20026;-76
2022/05/18 06:56:02;;;;;;;6.53;2.08;;;21.40;96.90;;;;;;5019687;28;20025;-75
2022/05/18 06:58:27;;;;;;;7.32;2.88;;;21.40;97.10;;;;;;5016419;28;20026;-75
2022/05/18 07:00:53;;;;;;;8.48;2.03;;;21.50;97.00;;;;;;5012215;28;20061;-76
2022/05/18 07:03:19;;;;;;;7.57;2.08;;;21.60;96.90;;;;;;5015924;28;20093;-75
2022/05/18 07:05:44;;;;;;;6.95;2.05;;;21.70;97.00;;;;;;5026930;28;20018;-76
2022/05/18 07:08:10;;;;;;;4.88;2.00;;;21.70;96.20;;;;;;5020608;28;20388;-75
2022/05/18 07:10:36;;;;;;;7.00;2.13;;;21.80;95.10;;;;;;5011493;28;20033;-75
2022/05/18 08:31:34;;;;;;;17.05;2.58;;;24.40;90.90;;;;;;5453544;23;20487;-75
2022/05/18 08:34:00;;;;;;;11.18;2.60;;;24.70;90.20;;;;;;5034024;28;20033;-75
2022/05/18 08:36:26;;;;;;;10.50;2.22;;;24.70;90.70;;;;;;5021659;28;20017;-75
2022/05/18 08:38:56;;;;;;;9.98;2.50;;;24.80;88.70;;;;;;5026466;28;20488;-75
2022/05/18 08:41:38;;;;;;;8.18;2.17;;;24.90;88.10;;;;;;5032941;28;20022;-74
2022/05/18 08:44:07;;;;;;;6.03;2.28;;;25.10;88.50;;;;;;5017094;28;20055;-74
2022/05/18 08:46:50;;;;;;;12.85;2.67;;;25.40;87.30;;;;;;5033101;28;20029;-75
2022/05/18 08:49:40;;;;;;;9.45;1.95;;;25.70;84.90;;;;;;5033675;28;20029;-75
2022/05/18 08:52:31;;;;;;;14.85;2.35;;;25.80;85.70;;;;;;5016357;28;20069;-75
2022/05/18 08:55:09;;;;;;;9.30;2.10;;;25.80;85.10;;;;;;5027929;28;20028;-75
2022/05/18 08:57:41;;;;;;;9.32;2.58;;;26.30;85.20;;;;;;5019952;28;20340;-75
2022/05/18 09:00:21;;;;;;;5.13;2.08;;;26.60;84.20;;;;;;5019285;28;20056;-75
2022/05/18 09:02:58;;;;;;;5.65;2.05;;;26.60;82.40;;;;;;5017150;28;20389;-75
2022/05/18 09:05:34;;;;;;;4.82;2.00;;;26.80;81.50;;;;;;5029561;28;20028;-75
2022/05/18 09:08:21;;;;;;;6.97;2.10;;;26.70;83.60;;;;;;5022188;28;20018;-74
2022/05/18 09:10:52;;;;;;;9.32;2.78;;;26.90;79.20;;;;;;5013886;28;20034;-75
2022/05/18 09:13:20;;;;;;;7.05;2.15;;;27.10;78.70;;;;;;5017332;28;20025;-75
2022/05/18 09:16:04;;;;;;;11.98;1.90;;;27.20;78.50;;;;;;5031965;28;20549;-75
2022/05/18 09:18:45;;;;;;;9.48;2.22;;;27.80;77.40;;;;;;5019440;28;20485;-75
2022/05/18 09:21:23;;;;;;;11.00;2.20;;;28.00;75.90;;;;;;5024447;28;20373;-75
2022/05/18 09:24:14;;;;;;;6.45;1.83;;;28.00;74.60;;;;;;5025346;28;20403;-75
2022/05/18 09:26:58;;;;;;;4.97;1.92;;;28.10;74.70;;;;;;5025785;28;20038;-75
2022/05/18 09:30:11;;;;;;;3.45;1.75;;;28.40;75.70;;;;;;5032672;28;20436;-75
2022/05/18 09:32:42;;;;;;;8.27;2.20;;;28.70;74.50;;;;;;4996597;28;20042;-75
2022/05/18 09:35:34;;;;;;;7.93;2.00;;;28.50;74.60;;;;;;5003333;28;20413;-75
2022/05/18 09:38:15;;;;;;;13.93;1.95;;;28.30;72.60;;;;;;5005336;28;20417;-75
2022/05/18 09:40:47;;;;;;;3.53;1.63;;;28.60;74.40;;;;;;5009900;28;20113;-75
2022/05/18 09:44:01;;;;;;;6.45;1.92;;;29.00;71.70;;;;;;5005407;28;20073;-75
2022/05/18 09:46:30;;;;;;;5.57;1.80;;;29.00;71.70;;;;;;4949447;29;20118;-75
2022/05/18 09:49:25;;;;;;;9.52;2.33;;;28.90;70.90;;;;;;4952417;29;20415;-74
2022/05/18 09:51:53;;;;;;;5.13;2.00;;;29.00;73.70;;;;;;4949340;29;20079;-78
2022/05/18 09:54:18;;;;;;;7.22;1.70;;;29.40;71.70;;;;;;4952125;28;20047;-77
2022/05/18 09:56:58;;;;;;;4.47;1.45;;;29.10;67.60;;;;;;4957928;28;20117;-76
2022/05/18 09:59:30;;;;;;;5.45;1.95;;;28.80;69.60;;;;;;4965506;28;20045;-77
2022/05/18 10:07:32;;;;;;;5.25;1.88;;;29.40;70.20;;;;;;4952421;29;20085;-76
2022/05/18 10:10:23;;;;;;;8.63;2.38;;;29.70;71.00;;;;;;4952439;29;20063;-76
2022/05/18 10:12:58;;;;;;;3.33;1.70;;;29.90;67.90;;;;;;4946168;28;20102;-76
2022/05/18 10:15:46;;;;;;;5.70;1.70;;;30.20;68.90;;;;;;4957213;28;20023;-76
2022/05/18 10:18:19;;;;;;;5.45;1.80;;;29.70;69.60;;;;;;4997472;28;20034;-77
2022/05/18 10:21:20;;;;;;;9.57;1.92;;;29.90;67.90;;;;;;5002069;28;20041;-76
2022/05/18 10:24:01;;;;;;;5.20;1.88;;;29.60;67.60;;;;;;5003757;28;20029;-76
2022/05/18 10:26:33;;;;;;;7.13;1.90;;;29.80;68.30;;;;;;5006399;28;20034;-77
2022/05/18 10:29:06;;;;;;;7.55;1.50;;;29.50;67.00;;;;;;5000158;28;20358;-75
2022/05/18 10:32:21;;;;;;;5.18;1.90;;;29.80;67.60;;;;;;5007464;28;20041;-76
2022/05/18 10:34:52;;;;;;;7.00;2.00;;;30.00;67.40;;;;;;5002646;28;20045;-75
2022/05/18 10:37:38;;;;;;;9.90;1.83;;;30.20;64.40;;;;;;5012387;28;20041;-77
2022/05/18 10:40:21;;;;;;;6.93;2.08;;;30.00;65.50;;;;;;5011934;28;20022;-78
2022/05/18 10:42:51;;;;;;;5.90;1.90;;;29.90;65.60;;;;;;5011703;28;20397;-75
2022/05/18 10:45:26;;;;;;;6.23;1.97;;;30.20;66.00;;;;;;5012394;28;20511;-76
2022/05/18 10:47:56;;;;;;;16.15;2.45;;;30.20;65.20;;;;;;5011903;28;20025;-77
2022/05/18 10:50:24;;;;;;;5.10;2.30;;;30.40;63.60;;;;;;5011968;28;20033;-76
2022/05/18 10:53:16;;;;;;;12.63;2.03;;;30.50;65.00;;;;;;4999082;28;20034;-77
2022/05/18 10:55:58;;;;;;;6.10;2.00;;;30.80;66.40;;;;;;4993096;28;20544;-76
2022/05/18 10:58:31;;;;;;;10.35;2.35;;;30.70;65.40;;;;;;5011136;28;20026;-75
2022/05/18 11:01:18;;;;;;;6.38;1.83;;;31.00;63.50;;;;;;5012098;28;20033;-75
2022/05/18 11:04:06;;;;;;;4.07;2.10;;;31.40;64.10;;;;;;5010273;28;20026;-75
2022/05/18 11:06:38;;;;;;;5.05;1.98;;;31.60;61.50;;;;;;5008527;28;20477;-75
2022/05/18 11:09:17;;;;;;;7.00;2.13;;;31.40;60.20;;;;;;5009187;28;20525;-75
2022/05/18 11:11:49;;;;;;;7.55;2.00;;;31.50;60.80;;;;;;5013465;28;20026;-75
2022/05/18 11:14:23;;;;;;;6.68;2.45;;;31.80;63.70;;;;;;5011668;28;20064;-74
2022/05/18 11:16:59;;;;;;;8.45;2.30;;;31.70;63.70;;;;;;5014739;28;20026;-76
2022/05/18 11:19:27;;;;;;;5.72;2.00;;;31.90;62.30;;;;;;5016388;28;20441;-76
2022/05/18 11:22:02;;;;;;;6.40;1.92;;;31.40;61.40;;;;;;5016057;28;20093;-75
2022/05/18 11:24:39;;;;;;;5.75;2.63;;;32.00;61.50;;;;;;5016282;28;20465;-74
2022/05/18 11:27:21;;;;;;;10.38;2.42;;;32.10;61.10;;;;;;5014565;28;20024;-75
2022/05/18 11:29:57;;;;;;;7.40;2.70;;;32.20;59.30;;;;;;5007110;28;20026;-75
2022/05/18 11:33:00;;;;;;;5.63;2.70;;;32.00;59.00;;;;;;5013687;28;20467;-76
2022/05/18 11:35:32;;;;;;;8.65;2.70;;;32.50;58.60;;;;;;5008580;28;20032;-75
2022/05/18 11:38:27;;;;;;;11.95;2.45;;;32.80;59.10;;;;;;5011917;28;20025;-75
2022/05/18 11:41:14;;;;;;;7.85;2.67;;;31.80;57.40;;;;;;5005951;28;20084;-76
2022/05/18 11:44:20;;;;;;;10.80;3.28;;;32.10;58.50;;;;;;5008202;28;20517;-76
2022/05/18 11:46:56;;;;;;;6.68;2.80;;;32.00;59.10;;;;;;4996525;28;20081;-75
2022/05/18 11:49:55;;;;;;;8.82;2.80;;;32.30;58.00;;;;;;5008944;28;20022;-75
2022/05/18 11:52:39;;;;;;;6.10;2.53;;;32.40;57.10;;;;;;5011242;28;20501;-76
2022/05/18 11:55:28;;;;;;;6.95;2.50;;;32.10;56.40;;;;;;4995748;28;20833;-76
2022/05/18 11:58:07;;;;;;;10.65;2.80;;;31.60;56.00;;;;;;5007535;28;20401;-76
2022/05/18 12:00:56;;;;;;;10.15;2.40;;;31.80;56.60;;;;;;5014857;28;20366;-75
2022/05/18 12:03:42;;;;;;;10.05;2.97;;;32.20;55.50;;;;;;5002666;28;20154;-75
2022/05/18 12:06:55;;;;;;;7.90;2.47;;;32.10;55.20;;;;;;5015214;28;20029;-75
2022/05/18 12:09:42;;;;;;;8.38;2.78;;;32.40;55.70;;;;;;5015994;28;20026;-75
2022/05/18 12:12:32;;;;;;;9.15;2.45;;;32.60;54.80;;;;;;5015055;28;20026;-75
2022/05/18 12:15:06;;;;;;;6.15;2.50;;;32.60;54.20;;;;;;5015492;28;20104;-75
2022/05/18 12:18:01;;;;;;;11.40;3.40;;;32.90;54.00;;;;;;5013858;28;20042;-75
2022/05/18 12:20:44;;;;;;;16.70;2.42;;;32.80;53.60;;;;;;5008859;28;20050;-75
2022/05/18 12:23:15;;;;;;;15.50;2.70;;;33.00;53.40;;;;;;5011605;28;20032;-76
2022/05/18 12:25:42;;;;;;;6.70;2.85;;;33.10;51.40;;;;;;5005612;28;20433;-75
2022/05/18 12:28:11;;;;;;;7.43;2.60;;;32.70;51.80;;;;;;4994874;28;20065;-75
2022/05/18 12:30:40;;;;;;;9.18;2.50;;;32.40;53.10;;;;;;5005002;28;20052;-76
2022/05/18 12:33:07;;;;;;;4.90;2.28;;;32.60;52.00;;;;;;5014988;28;20026;-75
2022/05/18 12:35:35;;;;;;;7.82;2.70;;;32.70;52.30;;;;;;5008611;28;20031;-75
2022/05/18 12:38:03;;;;;;;8.90;3.10;;;32.80;52.20;;;;;;5012626;28;20022;-75
2022/05/18 12:40:35;;;;;;;10.05;2.92;;;32.80;53.00;;;;;;5013491;28;20092;-75
2022/05/18 12:43:27;;;;;;;8.18;2.92;;;33.00;52.90;;;;;;5009938;28;20552;-75
2022/05/18 12:46:26;;;;;;;9.25;2.95;;;32.80;52.70;;;;;;5014884;28;20034;-75
2022/05/18 12:49:02;;;;;;;6.22;2.58;;;33.10;50.70;;;;;;5007390;28;20089;-75
2022/05/18 12:51:29;;;;;;;10.18;2.60;;;32.50;51.10;;;;;;5004595;28;20021;-75
2022/05/18 12:54:09;;;;;;;7.53;2.53;;;32.20;50.90;;;;;;5008105;28;20101;-75
2022/05/18 12:56:35;;;;;;;10.65;3.05;;;32.50;52.40;;;;;;5011824;28;20030;-75
2022/05/18 12:59:02;;;;;;;9.65;2.63;;;33.20;52.40;;;;;;5005405;28;20018;-75
2022/05/18 13:01:34;;;;;;;9.63;2.55;;;33.30;50.50;;;;;;5014159;28;20362;-75
2022/05/18 13:04:26;;;;;;;7.47;2.38;;;32.80;49.40;;;;;;5014401;28;20037;-75
2022/05/18 13:07:17;;;;;;;12.43;2.47;;;32.90;49.00;;;;;;5014258;28;20504;-76
2022/05/18 13:09:45;;;;;;;8.57;2.33;;;32.60;49.60;;;;;;5014093;28;20033;-75
2022/05/18 13:12:23;;;;;;;5.40;2.38;;;32.30;50.40;;;;;;5013966;28;20101;-75
2022/05/18 13:14:59;;;;;;;10.07;2.60;;;32.70;52.00;;;;;;5012241;28;20053;-75
2022/05/18 13:17:41;;;;;;;6.70;2.55;;;33.00;51.30;;;;;;5007456;28;20025;-75
2022/05/18 13:20:40;;;;;;;11.05;2.53;;;32.90;51.50;;;;;;5013973;28;20101;-75
2022/05/18 13:23:12;;;;;;;12.48;2.70;;;33.20;51.80;;;;;;5013345;28;20033;-75
2022/05/18 13:25:41;;;;;;;9.43;2.55;;;33.30;50.10;;;;;;5011749;28;20075;-75
2022/05/18 13:28:08;;;;;;;7.25;2.15;;;33.00;50.70;;;;;;5005390;28;20026;-75
2022/05/18 13:30:37;;;;;;;10.35;2.45;;;32.70;51.30;;;;;;5008450;28;20046;-77
2022/05/18 13:33:05;;;;;;;12.38;2.45;;;32.80;51.50;;;;;;5012013;28;20033;-74
2022/05/18 13:35:32;;;;;;;8.32;2.65;;;32.70;51.70;;;;;;5012692;28;20018;-79
2022/05/18 13:38:22;;;;;;;8.27;3.00;;;33.10;51.40;;;;;;5004644;28;20065;-75
2022/05/18 13:40:53;;;;;;;9.60;2.83;;;32.80;51.80;;;;;;5020777;28;20112;-77
2022/05/18 13:43:20;;;;;;;11.20;3.17;;;32.70;51.20;;;;;;5026361;28;20053;-76
2022/05/18 13:46:02;;;;;;;6.70;2.58;;;32.40;51.40;;;;;;5024150;28;20043;-77
2022/05/18 13:48:28;;;;;;;4.78;2.33;;;32.20;51.10;;;;;;5017892;28;20022;-76
2022/05/18 13:51:03;;;;;;;7.05;2.38;;;32.70;52.60;;;;;;5016711;28;20018;-77
2022/05/18 13:53:36;;;;;;;7.85;2.55;;;33.00;51.50;;;;;;5015861;28;20037;-77
2022/05/18 13:56:19;;;;;;;10.73;2.47;;;32.60;53.40;;;;;;5019746;28;20023;-77
2022/05/18 13:58:47;;;;;;;9.00;2.40;;;32.80;54.10;;;;;;5018090;28;20033;-77
2022/05/18 14:01:30;;;;;;;7.53;2.42;;;32.40;53.10;;;;;;5015919;28;20025;-76
2022/05/18 14:03:57;;;;;;;9.35;3.25;;;32.30;52.80;;;;;;5025914;28;20025;-77
2022/05/18 14:06:24;;;;;;;8.98;2.40;;;32.20;52.90;;;;;;5017779;28;20087;-79
2022/05/18 14:09:01;;;;;;;6.28;2.53;;;32.40;52.60;;;;;;5015717;28;20014;-80
2022/05/18 14:11:28;;;;;;;8.50;2.40;;;32.40;52.80;;;;;;5008965;28;20026;-81
2022/05/18 14:13:58;;;;;;;12.15;2.67;;;32.60;53.30;;;;;;5015713;28;20016;-77
2022/05/18 14:16:34;;;;;;;5.95;2.55;;;32.60;53.50;;;;;;5016686;28;20497;-78
2022/05/18 14:19:03;;;;;;;7.40;2.35;;;32.50;51.40;;;;;;5021723;28;20041;-76
2022/05/18 14:21:29;;;;;;;7.78;2.20;;;32.40;53.50;;;;;;5020018;28;20049;-77
2022/05/18 14:24:04;;;;;;;12.38;3.22;;;32.50;52.90;;;;;;5014542;28;20025;-76
2022/05/18 14:26:39;;;;;;;8.65;2.92;;;32.50;51.00;;;;;;5009429;28;20022;-76
2022/05/18 14:29:10;;;;;;;6.65;2.88;;;32.20;52.50;;;;;;5010550;28;20041;-75
2022/05/18 14:31:47;;;;;;;23.08;2.90;;;31.80;53.60;;;;;;5010908;28;20114;-76
2022/05/18 14:34:15;;;;;;;12.77;2.78;;;31.90;52.30;;;;;;5012617;28;20263;-76
2022/05/18 14:36:42;;;;;;;9.38;2.22;;;31.70;51.60;;;;;;5011866;28;20032;-78
2022/05/18 14:39:14;;;;;;;9.20;2.45;;;31.80;52.40;;;;;;5005806;28;20022;-78
2022/05/18 14:41:44;;;;;;;7.05;2.25;;;32.00;51.70;;;;;;5011192;28;20481;-78
2022/05/18 14:44:15;;;;;;;10.73;3.45;;;32.40;51.10;;;;;;5010361;28;20029;-79
2022/05/18 14:46:46;;;;;;;10.82;2.50;;;32.60;51.20;;;;;;5002352;28;20026;-78
2022/05/18 14:49:13;;;;;;;9.10;2.40;;;32.40;51.30;;;;;;5004340;28;20022;-78
2022/05/18 14:51:39;;;;;;;7.18;2.50;;;32.20;50.30;;;;;;5008537;28;20030;-78
2022/05/18 14:54:33;;;;;;;4.70;2.60;;;31.90;51.10;;;;;;4998515;28;20034;-79
2022/05/18 14:57:10;;;;;;;9.73;3.08;;;32.10;50.60;;;;;;5002693;28;20045;-77
2022/05/18 14:59:50;;;;;;;13.27;2.20;;;32.10;50.90;;;;;;5007502;28;20026;-79
2022/05/18 15:02:16;;;;;;;7.03;2.50;;;32.20;50.00;;;;;;5010093;28;20022;-78
2022/05/18 15:05:05;;;;;;;8.02;2.53;;;32.10;50.50;;;;;;5001529;28;20018;-79
2022/05/18 15:07:36;;;;;;;9.20;2.60;;;32.10;50.60;;;;;;5000802;28;20474;-79
2022/05/18 15:10:17;;;;;;;8.00;2.53;;;32.30;50.70;;;;;;4998075;28;20033;-79
2022/05/18 15:12:46;;;;;;;9.80;2.92;;;32.30;50.80;;;;;;4997753;28;20472;-79
2022/05/18 15:15:18;;;;;;;9.40;1.90;;;31.80;50.30;;;;;;5006097;28;20026;-78
2022/05/18 15:17:47;;;;;;;5.97;2.28;;;31.70;50.40;;;;;;5002551;28;20025;-79
2022/05/18 15:20:23;;;;;;;9.93;2.15;;;31.40;50.30;;;;;;5001091;28;20031;-78
2022/05/18 15:22:55;;;;;;;6.45;2.40;;;31.20;50.00;;;;;;4995565;28;20568;-78
2022/05/18 15:25:40;;;;;;;6.80;2.28;;;31.30;50.30;;;;;;5001152;28;20478;-79
2022/05/18 15:28:18;;;;;;;7.03;2.47;;;31.70;50.70;;;;;;4995648;28;20033;-79